Dumas, AR (71639)

1:57 AM CDT on July 29, 2014 (GMT -0500)
Monticello Municipal-Ellis (KLLQ) Elev 269 ft | 33.64 °N, 91.76 °W | Change Station

Current weather conditions updated 4 minutes ago

Clear
Clear
68 °F
Feels Like 68 °F
N
0
Wind Variable Wind from North

Today is forecast to be Cooler than yesterday.

Today
High -- | Low -- °F
--% Chance of Precip.
Yesterday
High -- | Low -- °F
Precip. -- in
6:15 AM 8:08 PM
Waxing Crescent, 5% visible
Pressure 30.04 in
Visibility 10.0 miles
Clouds Clear
Dew Point 65 °F
Humidity 90%
Rainfall 0.00 in
Snow Depth Not available.
UV 0 out of 12
Pollen 5.20 out of 12
Air Quality Not available.
Flu Activity Not available.
METAR KLLQ 290653Z AUTO 00000KT 10SM CLR 20/18 A3005 RMK AO2 SLP172 T02000183

More Conditions Fewer Conditions

Pressure 30.04 in
Visibility 10.0 miles
Clouds Clear
Dew Point 65 °F
Humidity 90%
Rainfall 0.00 in
Snow Depth Not available.
UV 0 out of 12
Pollen 5.20 out of 12
Air Quality Not available.
Flu Activity Not available.
METAR KLLQ 290653Z AUTO 00000KT 10SM CLR 20/18 A3005 RMK AO2 SLP172 T02000183

More Conditions Fewer Conditions

10-Day Weather Forecast

Almanac

Astronomy

Jul. 29, 2014 Rise Set
Actual Time 6:15 AM CDT 8:08 PM CDT
Civil Twilight 5:47 AM CDT 8:36 PM CDT
Nautical Twilight 5:14 AM CDT 9:09 PM CDT
Astronomical Twilight 4:38 AM CDT 9:45 PM CDT
Moon 8:42 AM CDT 9:32 PM CDT
Length of Visible Light 14h 48m
Length of Day
13h 53m
Tomorrow will be 1m 29s shorter.
Waxing Crescent, 5% of the Moon is Illuminated
Today
Waxing Crescent
Aug 3
First Quarter
Aug 10
Full
Aug 17
Last Quarter
Aug 25
New

Today's Extremes

State Highs State Lows

Community

WunderPhotos

Upload Photos

1,738,651 photos uploaded!

Nearby

Snow Depth

Station Depth Elevation
No new snow has been reported.

Earthquake Activity

City Distance Mag. Time & Date
No recent earthquake activity has been reported nearby.
Minimum magnitude displayed is 2.5.

Coastal Water Temperatures

Place Temperature
No Stations Reporting

Nearby Weather Stations

Station Location Temp. Dew Point Humidity Wind Precip. Elev Updated Type
MesoWest GOULD , Gould, AR 71 °F - - North  at  - 0.00 in / hr 170 ft 12:10 AM CDT MADIS
MesoWest WNCSTR , Winchester, AR 70 °F - - North  at  - 0.00 in / hr 162 ft 1:10 AM CDT MADIS
MesoWest GRADY , Grady, AR 68 °F - - North  at  - 0.00 in / hr 191 ft 1:00 AM CDT MADIS

Show More Stations Show Fewer Stations